createdAt,value
2017-11-12T00:00:20.079Z,87.70
2017-11-12T00:02:48.106Z,87.70
2017-11-12T00:05:16.103Z,87.40
2017-11-12T00:07:44.085Z,87.00
2017-11-12T00:10:12.105Z,87.30
2017-11-12T00:12:40.866Z,87.80
2017-11-12T00:15:08.878Z,86.90
2017-11-12T00:17:36.894Z,86.70
2017-11-12T00:20:04.882Z,87.40
2017-11-12T00:22:32.867Z,87.30
2017-11-12T00:25:00.870Z,87.40
2017-11-12T00:27:28.869Z,87.30
2017-11-12T00:29:56.862Z,87.30
2017-11-12T00:32:26.505Z,87.00
2017-11-12T00:34:55.295Z,86.80
2017-11-12T00:37:23.253Z,86.80
2017-11-12T00:39:51.473Z,86.70
2017-11-12T00:42:20.236Z,85.50
2017-11-12T00:44:48.222Z,85.20
2017-11-12T00:47:16.242Z,85.70
2017-11-12T00:49:45.758Z,85.70
2017-11-12T00:52:15.019Z,86.10
2017-11-12T00:54:43.016Z,86.20
2017-11-12T00:57:11.016Z,86.90
2017-11-12T00:59:38.985Z,86.90
2017-11-12T01:02:07.002Z,86.90
2017-11-12T01:04:35.905Z,86.80
2017-11-12T01:07:03.881Z,86.80
2017-11-12T01:09:32.065Z,86.80
2017-11-12T01:12:00.053Z,87.10
2017-11-12T01:14:28.042Z,87.10
2017-11-12T01:16:56.830Z,87.50
2017-11-12T01:19:24.821Z,87.50
2017-11-12T01:21:53.568Z,87.80
2017-11-12T01:24:21.594Z,87.50
2017-11-12T01:26:49.577Z,87.20
2017-11-12T01:29:19.119Z,86.70
2017-11-12T01:31:47.920Z,86.70
2017-11-12T01:34:16.721Z,86.70
2017-11-12T01:36:45.752Z,86.70
2017-11-12T01:39:13.780Z,86.70
2017-11-12T01:41:42.048Z,86.70
2017-11-12T01:44:10.064Z,86.60
2017-11-12T01:46:38.080Z,86.80
2017-11-12T01:49:06.893Z,86.60
2017-11-12T01:51:34.920Z,86.50
2017-11-12T01:54:02.960Z,86.60
2017-11-12T01:56:31.002Z,86.50
2017-11-12T01:58:59.037Z,86.50
2017-11-12T02:01:27.074Z,86.50
2017-11-12T02:03:55.915Z,86.50
2017-11-12T02:06:23.977Z,86.50
2017-11-12T02:08:52.767Z,85.60
2017-11-12T02:11:20.801Z,85.60
2017-11-12T02:13:48.824Z,85.70
2017-11-12T02:16:16.886Z,85.60
2017-11-12T02:18:44.896Z,86.10
2017-11-12T02:21:12.932Z,85.90
2017-11-12T02:23:40.957Z,85.90
2017-11-12T02:26:09.193Z,86.40
2017-11-12T02:28:37.224Z,86.80
2017-11-12T02:31:05.244Z,85.60
2017-11-12T02:33:33.308Z,86.20
2017-11-12T02:36:02.112Z,86.10
2017-11-12T02:38:30.913Z,86.00
2017-11-12T02:40:59.706Z,86.40
2017-11-12T02:43:27.744Z,86.30
2017-11-12T02:45:55.784Z,86.50
2017-11-12T02:48:23.856Z,86.50
2017-11-12T02:50:52.807Z,87.10
2017-11-12T02:53:20.862Z,87.10
2017-11-12T02:55:49.652Z,87.70
2017-11-12T02:58:17.696Z,87.70
2017-11-12T03:00:45.708Z,88.00
2017-11-12T03:03:13.933Z,88.20
2017-11-12T03:05:41.952Z,88.40
2017-11-12T03:08:09.972Z,88.60
2017-11-12T03:10:38.793Z,88.30
2017-11-12T03:13:07.582Z,88.20
2017-11-12T03:15:36.376Z,87.80
2017-11-12T03:18:04.428Z,87.60
2017-11-12T03:20:32.461Z,88.00
2017-11-12T03:23:01.265Z,89.00
2017-11-12T03:25:30.065Z,89.50
2017-11-12T03:27:58.870Z,89.70
2017-11-12T03:30:26.922Z,89.70
2017-11-12T03:32:54.937Z,89.70
2017-11-12T03:35:23.001Z,89.60
2017-11-12T03:37:51.792Z,89.80
2017-11-12T03:40:19.821Z,89.70
2017-11-12T03:42:47.876Z,89.70
2017-11-12T03:45:16.670Z,90.10
2017-11-12T03:47:44.708Z,90.00
2017-11-12T03:50:12.738Z,90.20
2017-11-12T03:52:40.769Z,90.00
2017-11-12T03:55:08.788Z,89.70
2017-11-12T03:57:36.815Z,89.70
2017-11-12T04:00:04.864Z,89.70
2017-11-12T04:02:32.881Z,89.70
2017-11-12T04:05:00.930Z,89.20
2017-11-12T04:07:28.952Z,89.50
2017-11-12T04:09:57.029Z,89.50
2017-11-12T04:12:25.056Z,89.60
2017-11-12T04:14:53.104Z,89.60
2017-11-12T04:17:21.173Z,89.90
2017-11-12T04:19:49.224Z,90.10
2017-11-12T04:22:17.277Z,90.30
2017-11-12T04:24:45.299Z,90.30
2017-11-12T04:27:13.328Z,90.00
2017-11-12T04:29:41.364Z,89.60
2017-11-12T04:32:09.389Z,89.40
2017-11-12T04:34:37.426Z,90.00
2017-11-12T04:37:05.448Z,89.60
2017-11-12T04:39:33.497Z,89.70
2017-11-12T04:42:01.516Z,89.80
2017-11-12T04:44:29.588Z,90.00
2017-11-12T04:46:58.387Z,90.00
2017-11-12T04:49:27.186Z,90.00
2017-11-12T04:51:55.974Z,89.80
2017-11-12T04:54:24.764Z,89.30
2017-11-12T04:56:52.807Z,89.20
2017-11-12T04:59:20.834Z,89.10
2017-11-12T05:01:49.157Z,89.30
2017-11-12T05:04:17.948Z,89.70
2017-11-12T05:06:46.757Z,89.60
2017-11-12T05:09:14.786Z,90.10
2017-11-12T05:11:42.836Z,89.70
2017-11-12T05:14:10.853Z,88.60
2017-11-12T05:16:38.883Z,88.70
2017-11-12T05:19:07.776Z,89.50
2017-11-12T05:21:36.558Z,90.10
2017-11-12T05:24:04.604Z,89.60
2017-11-12T05:26:32.632Z,89.90
2017-11-12T05:29:00.665Z,90.20
2017-11-12T05:31:28.696Z,90.20
2017-11-12T05:33:56.755Z,90.20
2017-11-12T05:36:24.800Z,90.10
2017-11-12T05:38:53.575Z,89.60
2017-11-12T05:41:22.385Z,89.10
2017-11-12T05:43:50.420Z,89.10
2017-11-12T05:46:18.464Z,89.00
2017-11-12T05:48:46.493Z,88.50
2017-11-12T05:51:14.540Z,88.60
2017-11-12T05:53:42.556Z,88.90
2017-11-12T05:56:10.814Z,88.50
2017-11-12T05:58:38.823Z,88.50
2017-11-12T06:01:06.856Z,89.00
2017-11-12T06:03:35.665Z,88.40
2017-11-12T06:06:04.456Z,88.20
2017-11-12T06:08:33.269Z,88.70
2017-11-12T06:11:02.071Z,89.00
2017-11-12T06:13:30.116Z,88.90
2017-11-12T06:15:58.180Z,89.40
2017-11-12T06:18:26.218Z,89.20
2017-11-12T06:20:54.999Z,89.60
2017-11-12T06:23:23.072Z,89.60
2017-11-12T06:25:51.093Z,89.50
2017-11-12T06:28:19.134Z,88.90
2017-11-12T06:30:47.155Z,89.30
2017-11-12T06:33:15.182Z,89.30
2017-11-12T06:35:43.213Z,89.00
2017-11-12T06:38:11.998Z,88.20
2017-11-12T06:40:40.036Z,88.10
2017-11-12T06:43:08.080Z,88.40
2017-11-12T06:45:36.876Z,87.20
2017-11-12T06:48:05.684Z,87.20
2017-11-12T06:50:34.502Z,87.90
2017-11-12T06:53:03.273Z,87.90
2017-11-12T06:55:32.084Z,88.80
2017-11-12T06:58:00.933Z,89.30
2017-11-12T07:00:28.982Z,89.20
2017-11-12T07:02:57.777Z,90.00
2017-11-12T07:05:26.559Z,90.20
2017-11-12T07:07:54.603Z,90.10
2017-11-12T07:10:22.644Z,90.40
2017-11-12T07:12:51.449Z,90.50
2017-11-12T07:15:20.239Z,90.70
2017-11-12T07:17:49.052Z,90.70
2017-11-12T07:20:17.841Z,90.50
2017-11-12T07:22:46.882Z,90.30
2017-11-12T07:25:14.916Z,90.20
2017-11-12T07:27:42.945Z,90.10
2017-11-12T07:30:10.985Z,90.00
2017-11-12T07:32:39.008Z,89.70
2017-11-12T07:35:07.055Z,89.60
2017-11-12T07:37:35.076Z,89.60
2017-11-12T07:40:03.156Z,89.70
2017-11-12T07:42:31.194Z,89.80
2017-11-12T07:45:00.379Z,90.00
2017-11-12T07:47:28.417Z,90.40
2017-11-12T07:49:57.230Z,90.60
2017-11-12T07:52:26.033Z,90.80
2017-11-12T07:54:54.065Z,90.70
2017-11-12T07:57:22.100Z,90.70
2017-11-12T07:59:50.121Z,90.70
2017-11-12T08:02:18.165Z,90.50
2017-11-12T08:04:46.205Z,90.50
2017-11-12T08:07:14.294Z,90.40
2017-11-12T08:09:42.308Z,90.60
2017-11-12T08:12:11.095Z,88.40
2017-11-12T08:14:39.917Z,88.40
2017-11-12T08:17:08.696Z,88.90
2017-11-12T08:19:36.748Z,88.90
2017-11-12T08:22:04.764Z,89.30
2017-11-12T08:24:32.805Z,89.20
2017-11-12T08:27:00.829Z,89.30
2017-11-12T08:29:28.886Z,89.40
2017-11-12T08:31:56.940Z,90.00
2017-11-12T08:34:25.013Z,89.80
2017-11-12T08:36:53.036Z,89.80
2017-11-12T08:39:22.088Z,89.50
2017-11-12T08:41:50.916Z,90.00
2017-11-12T08:44:19.179Z,90.00
2017-11-12T08:46:48.005Z,90.20
2017-11-12T08:49:16.028Z,90.10
2017-11-12T08:51:44.087Z,90.10
2017-11-12T08:54:12.117Z,90.10
2017-11-12T08:56:40.164Z,90.20
2017-11-12T08:59:08.204Z,90.40
2017-11-12T09:01:36.997Z,90.20
2017-11-12T09:04:05.796Z,90.20
2017-11-12T09:06:34.592Z,90.20
2017-11-12T09:09:03.456Z,90.30
2017-11-12T09:11:31.484Z,90.20
2017-11-12T09:14:00.313Z,90.10
2017-11-12T09:16:28.361Z,90.10
2017-11-12T09:18:56.393Z,90.30
2017-11-12T09:21:24.419Z,90.40
2017-11-12T09:23:52.456Z,90.30
2017-11-12T09:26:20.509Z,90.30
2017-11-12T09:28:49.315Z,90.60
2017-11-12T09:31:17.359Z,90.60
2017-11-12T09:33:45.396Z,90.60
2017-11-12T09:36:13.449Z,90.60
2017-11-12T09:38:42.459Z,90.60
2017-11-12T09:41:11.256Z,90.60
2017-11-12T09:43:40.044Z,90.30
2017-11-12T09:46:08.884Z,90.30
2017-11-12T09:48:36.899Z,90.30
2017-11-12T09:51:04.948Z,90.40
2017-11-12T09:53:32.996Z,90.40
2017-11-12T09:56:01.037Z,90.50
2017-11-12T09:58:29.078Z,90.50
2017-11-12T10:00:57.121Z,90.60
2017-11-12T10:03:25.153Z,90.60
2017-11-12T10:05:53.957Z,90.60
2017-11-12T10:08:22.744Z,90.60
2017-11-12T10:10:51.583Z,90.60
2017-11-12T10:13:19.608Z,90.60
2017-11-12T10:15:47.649Z,90.60
2017-11-12T10:18:16.565Z,90.60
2017-11-12T10:20:44.592Z,90.60
2017-11-12T10:23:12.669Z,90.60
2017-11-12T10:25:40.683Z,90.70
2017-11-12T10:28:09.493Z,90.80
2017-11-12T10:30:37.512Z,90.80
2017-11-12T10:33:05.584Z,90.70
2017-11-12T10:35:33.615Z,90.70
2017-11-12T10:38:01.629Z,90.30
2017-11-12T10:40:29.667Z,89.50
2017-11-12T10:42:57.696Z,89.60
2017-11-12T10:45:25.740Z,88.70
2017-11-12T10:47:53.799Z,87.00
2017-11-12T10:50:21.845Z,87.00
2017-11-12T10:52:49.861Z,88.00
2017-11-12T10:55:17.886Z,86.90
2017-11-12T10:57:45.950Z,85.50
2017-11-12T11:00:15.509Z,86.80
2017-11-12T11:02:44.317Z,86.90
2017-11-12T11:05:12.345Z,87.40
2017-11-12T11:07:40.373Z,87.50
2017-11-12T11:10:09.172Z,84.60
2017-11-12T11:12:38.008Z,84.10
2017-11-12T11:15:06.043Z,84.00
2017-11-12T11:17:34.059Z,84.60
2017-11-12T11:20:02.115Z,84.50
2017-11-12T11:22:30.132Z,85.90
2017-11-12T11:24:58.168Z,86.30
2017-11-12T11:27:26.191Z,83.40
2017-11-12T11:29:59.205Z,83.60
2017-11-12T11:32:36.741Z,84.50
2017-11-12T11:35:07.346Z,84.90
2017-11-12T11:37:35.380Z,85.40
2017-11-12T11:40:03.426Z,85.30
2017-11-12T11:42:31.463Z,87.70
2017-11-12T11:44:59.491Z,89.20
2017-11-12T11:47:27.554Z,89.70
2017-11-12T11:49:56.328Z,86.60
2017-11-12T11:52:25.128Z,85.50
2017-11-12T11:54:53.200Z,85.80
2017-11-12T11:57:21.238Z,86.40
2017-11-12T11:59:49.284Z,84.80
2017-11-12T12:02:17.323Z,83.50
2017-11-12T12:04:45.345Z,79.70
2017-11-12T12:07:13.385Z,79.50
2017-11-12T12:09:41.423Z,80.60
2017-11-12T12:12:10.212Z,82.50
2017-11-12T12:14:38.464Z,82.40
2017-11-12T12:17:06.482Z,82.50
2017-11-12T12:19:36.036Z,83.20
2017-11-12T12:22:04.827Z,82.80
2017-11-12T12:24:33.644Z,82.60
2017-11-12T12:27:01.700Z,82.60
2017-11-12T12:29:30.547Z,81.90
2017-11-12T12:31:58.586Z,81.90
2017-11-12T12:34:27.380Z,82.40
2017-11-12T12:36:55.434Z,82.40
2017-11-12T12:39:23.455Z,82.40
2017-11-12T12:41:52.317Z,82.30
2017-11-12T12:44:20.496Z,82.30
2017-11-12T12:46:48.532Z,82.20
2017-11-12T12:49:17.319Z,84.10
2017-11-12T12:51:45.353Z,84.00
2017-11-12T12:54:13.396Z,84.70
2017-11-12T12:56:42.200Z,85.20
2017-11-12T12:59:15.191Z,84.60
2017-11-12T13:01:44.000Z,84.10
2017-11-12T13:04:12.796Z,84.10
2017-11-12T13:06:41.624Z,84.70
2017-11-12T13:09:09.644Z,84.10
2017-11-12T13:11:37.667Z,84.10
2017-11-12T13:14:06.472Z,85.10
2017-11-12T13:16:35.256Z,85.80
2017-11-12T13:19:03.318Z,85.70
2017-11-12T13:21:31.332Z,86.30
2017-11-12T13:23:59.363Z,86.50
2017-11-12T13:26:27.485Z,86.10
2017-11-12T13:28:55.525Z,86.20
2017-11-12T13:31:23.806Z,86.00
2017-11-12T13:33:55.127Z,85.90
2017-11-12T13:36:26.969Z,86.20
2017-11-12T13:38:57.062Z,86.50
2017-11-12T13:41:26.556Z,86.80
2017-11-12T13:43:56.689Z,86.60
2017-11-12T13:46:26.147Z,86.00
2017-11-12T13:48:55.811Z,86.30
2017-11-12T13:51:27.588Z,86.80
2017-11-12T13:53:56.742Z,86.80
2017-11-12T13:56:25.181Z,87.30
2017-11-12T13:58:56.550Z,86.40
2017-11-12T14:01:25.308Z,85.60
2017-11-12T14:04:00.121Z,85.70
2017-11-12T14:06:31.413Z,85.30
2017-11-12T14:09:02.532Z,86.20
2017-11-12T14:11:30.580Z,86.80
2017-11-12T14:13:58.630Z,86.60
2017-11-12T14:16:27.965Z,86.90
2017-11-12T14:18:56.732Z,87.40
2017-11-12T14:21:24.755Z,87.80
2017-11-12T14:23:55.524Z,87.80
2017-11-12T14:26:25.335Z,88.50
2017-11-12T14:28:53.371Z,88.40
2017-11-12T14:31:21.385Z,88.50
2017-11-12T14:33:49.438Z,88.50
2017-11-12T14:36:17.562Z,88.60
2017-11-12T14:38:45.572Z,88.30
2017-11-12T14:41:13.617Z,88.60
2017-11-12T14:43:41.630Z,88.60
2017-11-12T14:46:09.668Z,88.20
2017-11-12T14:48:37.728Z,87.90
2017-11-12T14:51:05.769Z,86.60
2017-11-12T14:53:33.792Z,86.30
2017-11-12T14:56:02.589Z,85.60
2017-11-12T14:58:31.380Z,86.10
2017-11-12T15:00:59.421Z,86.00
2017-11-12T15:03:27.448Z,86.90
2017-11-12T15:05:55.483Z,86.90
2017-11-12T15:08:23.500Z,86.50
2017-11-12T15:10:52.331Z,84.60
2017-11-12T15:13:20.361Z,84.50
2017-11-12T15:15:48.436Z,84.80
2017-11-12T15:18:16.465Z,86.50
2017-11-12T15:20:44.483Z,87.20
2017-11-12T15:23:12.558Z,86.70
2017-11-12T15:25:41.376Z,86.30
2017-11-12T15:28:09.421Z,86.10
2017-11-12T15:30:37.449Z,86.10
2017-11-12T15:33:05.492Z,86.90
2017-11-12T15:35:34.289Z,88.70
2017-11-12T15:38:02.324Z,88.00
2017-11-12T15:40:30.357Z,87.80
2017-11-12T15:42:58.408Z,86.30
2017-11-12T15:45:26.435Z,87.30
2017-11-12T15:47:55.274Z,87.20
2017-11-12T15:50:23.306Z,87.30
2017-11-12T15:52:51.329Z,87.70
2017-11-12T15:55:19.360Z,88.10
2017-11-12T15:57:47.383Z,87.90
2017-11-12T16:00:16.186Z,87.20
2017-11-12T16:02:44.965Z,87.50
2017-11-12T16:05:13.005Z,87.50
2017-11-12T16:07:41.040Z,87.60
2017-11-12T16:10:09.860Z,88.10
2017-11-12T16:12:37.896Z,88.00
2017-11-12T16:15:05.917Z,88.00
2017-11-12T16:17:34.729Z,88.10
2017-11-12T16:20:02.771Z,88.10
2017-11-12T16:22:30.825Z,87.60
2017-11-12T16:24:58.852Z,87.50
2017-11-12T16:27:27.666Z,88.10
2017-11-12T16:29:56.485Z,88.30
2017-11-12T16:32:24.569Z,88.90
2017-11-12T16:34:52.593Z,89.10
2017-11-12T16:37:20.623Z,88.60
2017-11-12T16:39:49.437Z,88.40
2017-11-12T16:42:17.452Z,88.40
2017-11-12T16:44:45.489Z,89.10
2017-11-12T16:47:14.271Z,89.40
2017-11-12T16:49:43.072Z,89.50
2017-11-12T16:52:11.104Z,89.30
2017-11-12T16:54:39.149Z,89.60
2017-11-12T16:57:07.937Z,89.30
2017-11-12T16:59:36.788Z,89.30
2017-11-12T17:02:04.810Z,89.30
2017-11-12T17:04:33.620Z,89.40
2017-11-12T17:07:01.653Z,89.80
2017-11-12T17:09:29.677Z,89.10
2017-11-12T17:11:57.748Z,89.30
2017-11-12T17:14:25.773Z,90.00
2017-11-12T17:16:54.588Z,88.40
2017-11-12T17:19:23.372Z,88.40
2017-11-12T17:21:52.176Z,88.70
2017-11-12T17:24:20.981Z,89.20
2017-11-12T17:26:49.837Z,89.40
2017-11-12T17:29:17.856Z,89.30
2017-11-12T17:31:45.877Z,89.60
2017-11-12T17:34:13.914Z,88.80
2017-11-12T17:36:41.926Z,89.00
2017-11-12T17:39:14.382Z,88.90
2017-11-12T17:41:42.409Z,89.50
2017-11-12T17:44:10.448Z,89.80
2017-11-12T17:46:38.467Z,90.30
2017-11-12T17:49:06.652Z,90.30
2017-11-12T17:51:34.695Z,90.40
2017-11-12T17:54:02.715Z,90.10
2017-11-12T17:56:31.537Z,90.10
2017-11-12T17:58:59.560Z,90.10
2017-11-12T18:01:27.699Z,89.80
2017-11-12T18:03:55.748Z,88.60
2017-11-12T18:06:24.572Z,89.20
2017-11-12T18:08:52.597Z,89.10
2017-11-12T18:11:20.637Z,89.30
2017-11-12T18:13:48.652Z,89.00
2017-11-12T18:16:16.693Z,88.90
2017-11-12T18:18:45.496Z,88.50
2017-11-12T18:21:14.285Z,88.50
2017-11-12T18:23:42.321Z,88.40
2017-11-12T18:26:10.352Z,88.50
2017-11-12T18:28:38.375Z,89.10
2017-11-12T18:31:06.421Z,88.60
2017-11-12T18:33:35.227Z,89.10
2017-11-12T18:36:04.001Z,88.70
2017-11-12T18:38:32.105Z,88.40
2017-11-12T18:41:00.121Z,88.80
2017-11-12T18:43:28.152Z,89.10
2017-11-12T18:45:57.701Z,88.50
2017-11-12T18:48:26.492Z,88.50
2017-11-12T18:50:55.313Z,88.50
2017-11-12T18:53:24.110Z,88.60
2017-11-12T18:56:02.970Z,88.60
2017-11-12T18:58:31.983Z,88.10
2017-11-12T19:01:00.507Z,87.90
2017-11-12T19:03:34.144Z,87.80
2017-11-12T19:06:07.748Z,88.40
2017-11-12T19:08:37.879Z,88.40
2017-11-12T19:11:07.304Z,88.40
2017-11-12T19:13:36.734Z,88.30
2017-11-12T19:16:05.538Z,88.50
2017-11-12T19:18:37.016Z,88.30
2017-11-12T19:21:06.427Z,88.50
2017-11-12T19:23:36.907Z,88.50
2017-11-12T19:26:22.848Z,88.30
2017-11-12T19:28:54.516Z,88.20
2017-11-12T19:31:23.519Z,88.10
2017-11-12T19:33:51.536Z,88.00
2017-11-12T19:36:19.575Z,87.20
2017-11-12T19:38:47.597Z,87.50
2017-11-12T19:41:16.404Z,87.80
2017-11-12T19:43:44.431Z,87.80
2017-11-12T19:46:12.475Z,88.00
2017-11-12T19:48:40.520Z,88.00
2017-11-12T19:51:08.544Z,87.40
2017-11-12T19:53:36.609Z,87.80
2017-11-12T19:56:05.392Z,87.90
2017-11-12T19:58:33.444Z,87.90
2017-11-12T20:01:01.484Z,88.00
2017-11-12T20:03:30.291Z,88.40
2017-11-12T20:05:58.316Z,88.20
2017-11-12T20:08:26.350Z,88.40
2017-11-12T20:10:55.128Z,87.90
2017-11-12T20:13:23.176Z,87.80
2017-11-12T20:15:51.228Z,87.70
2017-11-12T20:18:19.268Z,87.80
2017-11-12T20:20:47.292Z,88.10
2017-11-12T20:23:15.361Z,88.40
2017-11-12T20:25:44.174Z,88.10
2017-11-12T20:28:12.951Z,88.50
2017-11-12T20:30:40.985Z,88.50
2017-11-12T20:33:09.029Z,88.50
2017-11-12T20:35:37.850Z,88.50
2017-11-12T20:38:05.872Z,88.50
2017-11-12T20:40:33.908Z,88.60
2017-11-12T20:43:02.697Z,88.20
2017-11-12T20:45:31.522Z,87.60
2017-11-12T20:47:59.538Z,87.60
2017-11-12T20:50:27.577Z,87.50
2017-11-12T20:52:56.528Z,87.90
2017-11-12T20:55:24.548Z,87.80
2017-11-12T20:57:53.340Z,88.70
2017-11-12T21:00:21.388Z,88.60
2017-11-12T21:02:49.410Z,88.60
2017-11-12T21:05:22.230Z,88.80
2017-11-12T21:07:51.021Z,89.50
2017-11-12T21:10:20.956Z,88.80
2017-11-12T21:12:49.330Z,88.60
2017-11-12T21:15:20.021Z,88.60
2017-11-12T21:17:54.506Z,88.60
2017-11-12T21:20:42.316Z,88.70
2017-11-12T21:26:14.474Z,89.20
2017-11-12T21:28:42.473Z,89.70
2017-11-12T21:31:30.978Z,89.00
2017-11-12T21:34:05.497Z,88.80
2017-11-12T21:36:41.631Z,88.90
2017-11-12T21:39:12.024Z,88.90
2017-11-12T21:41:42.822Z,88.90
2017-11-12T21:44:14.904Z,88.70
2017-11-12T21:46:44.707Z,87.80
2017-11-12T21:49:12.736Z,87.90
2017-11-12T21:51:40.764Z,88.30
2017-11-12T21:54:09.596Z,87.50
2017-11-12T21:56:37.814Z,87.50
2017-11-12T21:59:05.880Z,88.40
2017-11-12T22:01:34.674Z,87.60
2017-11-12T22:04:04.560Z,87.60
2017-11-12T22:06:34.848Z,87.00
2017-11-12T22:09:04.993Z,87.50
2017-11-12T22:11:34.910Z,87.20
2017-11-12T22:14:10.648Z,87.10
2017-11-12T22:16:42.922Z,87.40
2017-11-12T22:19:10.968Z,87.30
2017-11-12T22:21:39.951Z,87.00
2017-11-12T22:24:09.066Z,86.40
2017-11-12T22:26:37.136Z,86.60
2017-11-12T22:29:05.966Z,86.60
2017-11-12T22:31:33.980Z,86.40
2017-11-12T22:34:03.063Z,86.40
2017-11-12T22:36:31.083Z,86.30
2017-11-12T22:38:59.132Z,87.00
2017-11-12T22:41:27.184Z,86.80
2017-11-12T22:43:56.020Z,86.00
2017-11-12T22:46:24.032Z,85.90
2017-11-12T22:48:52.053Z,85.60
2017-11-12T22:51:20.865Z,85.80
2017-11-12T22:53:48.884Z,85.80
2017-11-12T22:56:16.928Z,85.50
2017-11-12T22:58:45.009Z,85.60
2017-11-12T23:01:13.804Z,86.10
2017-11-12T23:03:42.580Z,85.60
2017-11-12T23:06:10.632Z,85.40
2017-11-12T23:08:38.652Z,85.50
2017-11-12T23:11:06.668Z,85.90
2017-11-12T23:13:34.708Z,86.40
2017-11-12T23:16:02.732Z,86.60
2017-11-12T23:18:30.763Z,86.20
2017-11-12T23:20:58.788Z,86.30
2017-11-12T23:23:27.588Z,86.40
2017-11-12T23:25:56.372Z,86.40
2017-11-12T23:28:24.436Z,86.30
2017-11-12T23:30:52.459Z,85.80
2017-11-12T23:33:20.487Z,85.60
2017-11-12T23:35:48.524Z,85.60
2017-11-12T23:38:17.337Z,85.00
2017-11-12T23:40:46.128Z,85.00
2017-11-12T23:43:14.920Z,86.30
2017-11-12T23:45:43.768Z,86.70
2017-11-12T23:48:11.789Z,86.50
2017-11-12T23:50:39.863Z,85.90
2017-11-12T23:53:09.404Z,86.10
2017-11-12T23:55:38.165Z,86.00
2017-11-12T23:58:06.205Z,85.80
